Time;durP1;ratioP1;P1;durP2;ratioP2;P2;SDS_P1;SDS_P2;PMS_P1;PMS_P2;Temp;Humidity;BMP_temperature;BMP_pressure;BME280_temperature;BME280_humidity;BME280_pressure;Samples;Min_cycle;Max_cycle;Signal;HPM_P1;HPM_P2
2023/04/11 00:01:25;;;;;;;2.90;0.30;;;7.00;99.90;;;;;;5055715;28;20061;-40
2023/04/11 00:03:51;;;;;;;2.17;0.65;;;6.90;99.90;;;;;;5055412;28;20112;-40
2023/04/11 00:06:17;;;;;;;6.43;0.90;;;6.90;99.90;;;;;;5053806;28;20156;-40
2023/04/11 00:08:43;;;;;;;3.08;0.50;;;6.80;99.90;;;;;;5057612;28;20127;-40
2023/04/11 00:11:09;;;;;;;2.72;0.75;;;6.80;99.90;;;;;;5061528;28;20059;-41
2023/04/11 00:13:36;;;;;;;4.15;0.60;;;6.80;99.90;;;;;;5054531;28;20808;-47
2023/04/11 00:16:02;;;;;;;3.22;0.60;;;6.80;99.90;;;;;;5057467;28;20075;-40
2023/04/11 00:18:28;;;;;;;3.08;0.60;;;6.80;99.90;;;;;;5053328;28;20214;-40
2023/04/11 00:20:53;;;;;;;3.20;0.50;;;6.80;99.90;;;;;;5055325;28;20515;-43
2023/04/11 00:23:19;;;;;;;4.28;0.63;;;6.80;99.90;;;;;;5055373;28;20163;-42
2023/04/11 00:25:45;;;;;;;4.82;0.65;;;6.80;99.90;;;;;;5055698;28;20056;-42
2023/04/11 00:28:11;;;;;;;3.22;0.40;;;6.80;99.90;;;;;;5056966;28;20048;-42
2023/04/11 00:30:37;;;;;;;3.45;0.63;;;6.80;99.90;;;;;;5055682;28;20440;-41
2023/04/11 00:33:03;;;;;;;5.78;0.80;;;6.80;99.90;;;;;;5061496;28;20678;-42
2023/04/11 00:35:29;;;;;;;4.05;0.77;;;6.80;99.90;;;;;;5054378;28;20061;-39
2023/04/11 00:37:55;;;;;;;3.15;0.55;;;6.80;99.90;;;;;;5057838;28;20063;-40
2023/04/11 00:40:21;;;;;;;9.65;1.00;;;6.80;99.90;;;;;;5060310;28;20417;-41
2023/04/11 00:42:47;;;;;;;3.55;0.60;;;6.80;99.90;;;;;;5054297;28;20056;-41
2023/04/11 00:45:13;;;;;;;3.50;0.70;;;6.80;99.90;;;;;;5059318;28;20067;-41
2023/04/11 00:47:39;;;;;;;3.13;0.70;;;6.80;99.90;;;;;;5060869;28;20051;-42
2023/04/11 00:50:06;;;;;;;3.03;0.60;;;6.80;99.90;;;;;;5061551;28;20131;-43
2023/04/11 00:52:32;;;;;;;5.00;0.90;;;6.80;99.90;;;;;;5053538;28;20106;-41
2023/04/11 00:55:00;;;;;;;3.67;0.77;;;6.90;99.90;;;;;;5060078;28;20048;-42
2023/04/11 00:57:26;;;;;;;5.10;0.60;;;6.90;99.90;;;;;;5054705;28;20052;-41
2023/04/11 00:59:51;;;;;;;7.25;0.90;;;6.90;99.90;;;;;;5057103;28;20041;-40
2023/04/11 01:02:17;;;;;;;5.25;1.00;;;6.90;99.90;;;;;;5054254;28;20098;-40
2023/04/11 01:04:44;;;;;;;7.38;1.25;;;6.90;99.90;;;;;;5057707;28;20060;-42
2023/04/11 01:07:11;;;;;;;3.65;0.73;;;6.90;99.90;;;;;;5054617;28;20126;-41
2023/04/11 01:09:38;;;;;;;8.43;1.10;;;6.90;99.90;;;;;;5055377;28;20083;-39
2023/04/11 01:12:05;;;;;;;5.97;1.10;;;6.90;99.90;;;;;;5061374;28;20533;-40
2023/04/11 01:14:31;;;;;;;7.53;0.80;;;7.00;99.90;;;;;;5060197;28;20041;-40
2023/04/11 01:16:56;;;;;;;3.97;0.65;;;7.00;99.90;;;;;;5053744;28;20048;-42
2023/04/11 01:19:25;;;;;;;5.85;1.20;;;7.00;99.90;;;;;;5057413;28;20093;-40
2023/04/11 01:21:53;;;;;;;3.85;1.90;;;7.00;99.90;;;;;;5055025;28;20067;-41
2023/04/11 01:24:19;;;;;;;6.32;0.77;;;7.10;99.90;;;;;;5060739;28;20049;-39
2023/04/11 01:26:45;;;;;;;4.22;1.00;;;7.10;99.90;;;;;;5036075;28;20602;-39
2023/04/11 01:29:10;;;;;;;3.88;0.77;;;7.00;99.90;;;;;;5057153;28;20135;-46
2023/04/11 01:31:36;;;;;;;8.95;1.42;;;7.00;99.90;;;;;;5056894;28;20045;-40
2023/04/11 01:34:03;;;;;;;6.85;0.88;;;7.10;99.90;;;;;;5056480;28;20052;-40
2023/04/11 01:36:30;;;;;;;6.80;1.00;;;7.10;99.90;;;;;;5059520;28;20382;-42
2023/04/11 01:38:56;;;;;;;8.70;1.20;;;7.10;99.90;;;;;;5055168;28;20059;-40
2023/04/11 01:41:23;;;;;;;7.57;1.65;;;7.10;99.90;;;;;;5059036;28;20052;-39
2023/04/11 01:43:49;;;;;;;6.72;0.93;;;7.10;99.90;;;;;;5055043;28;20175;-40
2023/04/11 01:46:15;;;;;;;8.25;0.85;;;7.10;99.90;;;;;;5055626;28;20522;-39
2023/04/11 01:48:42;;;;;;;6.30;1.00;;;7.20;99.90;;;;;;5056485;28;20052;-40
2023/04/11 01:51:07;;;;;;;13.13;1.48;;;7.20;99.90;;;;;;5059587;28;20074;-43
2023/04/11 01:53:33;;;;;;;6.80;1.02;;;7.30;99.90;;;;;;5054004;28;20048;-40
2023/04/11 01:55:59;;;;;;;11.55;1.10;;;7.40;99.90;;;;;;5058637;28;20510;-41
2023/04/11 01:58:24;;;;;;;9.45;1.38;;;7.50;99.90;;;;;;5055285;28;20060;-40
2023/04/11 02:00:50;;;;;;;11.60;1.00;;;7.60;99.90;;;;;;5053060;28;20845;-40
2023/04/11 02:03:19;;;;;;;10.45;1.98;;;7.60;99.90;;;;;;5055371;28;20140;-40
2023/04/11 02:05:45;;;;;;;7.57;1.08;;;7.70;99.90;;;;;;5052079;28;20045;-40
2023/04/11 02:08:11;;;;;;;7.95;1.10;;;7.70;99.90;;;;;;5053180;28;20045;-43
2023/04/11 02:10:37;;;;;;;15.95;3.03;;;7.80;99.90;;;;;;5053848;28;20044;-39
2023/04/11 02:13:02;;;;;;;10.77;2.05;;;7.80;99.90;;;;;;5051267;28;20051;-43
2023/04/11 02:15:28;;;;;;;9.27;1.70;;;7.80;99.90;;;;;;5059823;28;20124;-41
2023/04/11 02:17:54;;;;;;;7.40;0.95;;;7.80;99.90;;;;;;5051538;28;20053;-41
2023/04/11 02:20:22;;;;;;;11.73;1.20;;;7.80;99.90;;;;;;5055649;28;20052;-38
2023/04/11 02:22:48;;;;;;;10.55;1.58;;;7.90;99.90;;;;;;5059106;28;20528;-41
2023/04/11 02:25:14;;;;;;;7.20;2.17;;;7.90;99.90;;;;;;5056153;28;20060;-40
2023/04/11 02:27:39;;;;;;;9.88;1.48;;;7.90;99.90;;;;;;5057376;28;20074;-41
2023/04/11 02:30:06;;;;;;;11.98;2.00;;;8.00;99.90;;;;;;5053757;28;20052;-42
2023/04/11 02:32:36;;;;;;;7.28;1.25;;;7.90;99.90;;;;;;5052638;28;20532;-42
2023/04/11 02:35:04;;;;;;;12.45;1.20;;;7.90;99.90;;;;;;5056550;28;20211;-43
2023/04/11 02:37:30;;;;;;;7.68;0.95;;;7.90;99.90;;;;;;5058680;28;20052;-41
2023/04/11 02:39:56;;;;;;;11.15;1.52;;;7.90;99.90;;;;;;5061232;28;20067;-42
2023/04/11 02:42:22;;;;;;;14.15;1.60;;;8.00;99.90;;;;;;5054931;28;20061;-41
2023/04/11 02:44:48;;;;;;;5.28;1.00;;;8.00;99.90;;;;;;5056271;28;20126;-41
2023/04/11 02:47:13;;;;;;;10.50;1.30;;;8.00;99.90;;;;;;5052984;28;20494;-40
2023/04/11 02:49:41;;;;;;;14.10;1.10;;;8.00;99.90;;;;;;5057331;28;20048;-42
2023/04/11 02:52:06;;;;;;;18.00;2.53;;;8.00;99.90;;;;;;5057468;28;20059;-41
2023/04/11 02:54:32;;;;;;;8.90;1.73;;;8.00;99.90;;;;;;5055445;28;20048;-42
2023/04/11 02:56:59;;;;;;;10.57;1.05;;;8.00;99.90;;;;;;5051898;28;20495;-41
2023/04/11 02:59:25;;;;;;;9.18;1.40;;;8.00;99.90;;;;;;5050461;28;20403;-41
2023/04/11 03:01:59;;;;;;;4.88;0.93;;;8.00;99.90;;;;;;5058894;28;20514;-41
2023/04/11 03:04:25;;;;;;;8.43;0.70;;;8.10;99.90;;;;;;5046779;28;20057;-41
2023/04/11 03:06:50;;;;;;;7.57;1.00;;;8.10;99.90;;;;;;5053306;28;20748;-50
2023/04/11 03:09:16;;;;;;;6.80;0.80;;;8.20;99.90;;;;;;5049122;28;20057;-42
2023/04/11 03:11:42;;;;;;;5.72;0.73;;;8.20;99.90;;;;;;5056816;28;20489;-40
2023/04/11 03:14:08;;;;;;;5.00;0.60;;;8.30;99.90;;;;;;5032522;28;20045;-40
2023/04/11 03:16:33;;;;;;;7.13;0.90;;;8.30;99.90;;;;;;5059786;28;20725;-42
2023/04/11 03:18:59;;;;;;;2.90;0.50;;;8.20;99.90;;;;;;5054263;28;20409;-42
2023/04/11 03:21:26;;;;;;;8.00;1.23;;;8.20;99.90;;;;;;5055259;28;20049;-40
2023/04/11 03:23:52;;;;;;;3.72;0.43;;;8.20;99.90;;;;;;5035784;28;20059;-41
2023/04/11 03:26:18;;;;;;;10.23;0.80;;;8.20;99.90;;;;;;5055653;28;20101;-41
2023/04/11 03:28:46;;;;;;;7.20;0.93;;;8.20;99.90;;;;;;5057553;28;20525;-42
2023/04/11 03:31:12;;;;;;;4.38;0.50;;;8.30;99.90;;;;;;5052802;28;20148;-41
2023/04/11 03:33:38;;;;;;;7.93;0.93;;;8.30;99.90;;;;;;5044988;28;20132;-40
2023/04/11 03:36:04;;;;;;;3.15;0.50;;;8.30;99.90;;;;;;5050064;28;20410;-39
2023/04/11 03:38:30;;;;;;;6.45;1.20;;;8.20;99.90;;;;;;5056977;28;20134;-40
2023/04/11 03:40:55;;;;;;;13.10;1.00;;;8.20;99.90;;;;;;5063777;28;20574;-40
2023/04/11 03:43:21;;;;;;;5.00;0.65;;;8.20;99.90;;;;;;5059284;28;20056;-41
2023/04/11 03:45:47;;;;;;;9.10;1.10;;;8.30;99.90;;;;;;5048679;28;20046;-41
2023/04/11 03:48:12;;;;;;;9.52;0.80;;;8.20;99.90;;;;;;5051930;28;20390;-41
2023/04/11 03:50:38;;;;;;;5.05;1.25;;;8.20;99.90;;;;;;5047148;28;20052;-41
2023/04/11 03:53:04;;;;;;;9.63;0.90;;;8.30;99.90;;;;;;5051907;28;20049;-43
2023/04/11 03:55:30;;;;;;;6.43;0.50;;;8.20;99.90;;;;;;5053312;28;20053;-41
2023/04/11 03:57:56;;;;;;;5.82;1.10;;;8.30;99.90;;;;;;5055586;28;20052;-41
2023/04/11 04:00:21;;;;;;;6.78;0.82;;;8.20;99.90;;;;;;5057562;28;20477;-41
2023/04/11 04:02:47;;;;;;;4.88;0.70;;;8.30;99.90;;;;;;5018910;28;1132517;-41
2023/04/11 04:05:13;;;;;;;4.88;0.88;;;8.20;99.90;;;;;;5058764;28;20422;-40
2023/04/11 04:07:38;;;;;;;4.85;0.60;;;8.30;99.90;;;;;;5056664;28;20049;-40
2023/04/11 04:10:05;;;;;;;5.70;0.65;;;8.30;99.90;;;;;;5058488;28;20416;-40
2023/04/11 04:12:31;;;;;;;4.82;0.70;;;8.30;99.90;;;;;;5062708;28;20052;-41
2023/04/11 04:14:56;;;;;;;9.07;1.08;;;8.30;99.90;;;;;;5058078;28;20150;-40
2023/04/11 04:17:22;;;;;;;8.27;0.98;;;8.20;99.90;;;;;;5053262;28;20052;-41
2023/04/11 04:19:48;;;;;;;6.90;1.30;;;8.20;99.90;;;;;;5057811;28;20414;-42
2023/04/11 04:22:16;;;;;;;6.43;1.40;;;8.20;99.90;;;;;;5055726;28;20052;-40
2023/04/11 04:24:44;;;;;;;7.32;0.90;;;8.20;99.90;;;;;;5056568;28;20048;-40
2023/04/11 04:27:12;;;;;;;4.97;0.90;;;8.10;99.90;;;;;;5059299;28;20417;-41
2023/04/11 04:29:47;;;;;;;6.07;0.95;;;8.10;99.90;;;;;;5062415;28;20060;-41
2023/04/11 04:32:19;;;;;;;7.25;1.27;;;8.10;99.90;;;;;;5056027;28;20493;-40
2023/04/11 04:34:48;;;;;;;4.22;0.60;;;8.00;99.90;;;;;;5062302;28;20195;-40
2023/04/11 04:37:21;;;;;;;3.90;0.55;;;8.10;99.90;;;;;;5060830;28;20055;-40
2023/04/11 04:39:55;;;;;;;4.93;0.88;;;8.00;99.90;;;;;;5053874;28;20045;-40
2023/04/11 04:42:26;;;;;;;4.75;0.60;;;8.00;99.90;;;;;;5051851;28;20056;-40
2023/04/11 04:44:52;;;;;;;8.65;1.33;;;8.00;99.90;;;;;;5056937;28;20052;-40
2023/04/11 04:47:21;;;;;;;9.02;1.02;;;8.00;99.90;;;;;;5052588;28;20546;-42
2023/04/11 04:49:47;;;;;;;5.53;0.63;;;8.00;99.90;;;;;;5060134;28;20125;-40
2023/04/11 04:52:13;;;;;;;6.50;0.90;;;8.00;99.90;;;;;;5053990;28;20495;-41
2023/04/11 04:54:38;;;;;;;7.40;0.82;;;8.00;99.90;;;;;;5056575;28;20097;-40
2023/04/11 04:57:05;;;;;;;8.07;0.60;;;8.10;99.90;;;;;;5058178;28;20052;-41
2023/04/11 04:59:31;;;;;;;5.25;0.73;;;8.00;99.90;;;;;;5040220;28;20055;-40
2023/04/11 05:01:57;;;;;;;5.68;1.08;;;8.10;99.90;;;;;;5057884;28;20061;-40
2023/04/11 05:04:23;;;;;;;3.30;0.80;;;8.10;99.90;;;;;;5060191;28;20060;-39
2023/04/11 05:06:49;;;;;;;3.65;0.73;;;8.10;99.90;;;;;;5059960;28;20537;-38
2023/04/11 05:09:15;;;;;;;6.13;0.65;;;8.10;99.90;;;;;;5054410;28;20083;-39
2023/04/11 05:11:40;;;;;;;8.85;0.65;;;8.10;99.90;;;;;;5060304;28;20071;-42
2023/04/11 05:14:06;;;;;;;2.08;0.60;;;8.00;99.90;;;;;;5034692;28;20135;-38
2023/04/11 05:16:32;;;;;;;4.53;0.47;;;8.00;99.90;;;;;;5044069;28;20553;-39
2023/04/11 05:18:58;;;;;;;2.20;0.45;;;8.10;99.90;;;;;;5038776;28;20292;-40
2023/04/11 05:21:23;;;;;;;6.05;0.88;;;8.10;99.90;;;;;;5047190;28;20110;-41
2023/04/11 05:23:49;;;;;;;6.38;0.70;;;8.10;99.90;;;;;;5056601;28;20580;-40
2023/04/11 05:26:15;;;;;;;12.55;1.00;;;8.10;99.90;;;;;;5068275;28;20123;-40
2023/04/11 05:28:41;;;;;;;3.10;0.60;;;8.10;99.90;;;;;;5064409;28;20426;-40
2023/04/11 05:31:08;;;;;;;3.85;0.70;;;8.10;99.90;;;;;;5060924;28;20049;-40
2023/04/11 05:33:37;;;;;;;2.55;0.50;;;8.10;99.90;;;;;;5062927;28;20056;-41
2023/04/11 05:36:03;;;;;;;5.40;0.77;;;8.20;99.90;;;;;;5060669;28;20465;-40
2023/04/11 05:38:30;;;;;;;3.03;0.75;;;8.20;99.90;;;;;;5061338;28;20531;-41
2023/04/11 05:40:56;;;;;;;3.08;0.50;;;8.20;99.90;;;;;;5053677;28;20071;-41
2023/04/11 05:43:21;;;;;;;5.68;0.95;;;8.20;99.90;;;;;;5044976;28;20490;-42
2023/04/11 05:45:48;;;;;;;5.43;0.63;;;8.20;99.90;;;;;;5047056;28;20491;-42
2023/04/11 05:48:14;;;;;;;4.50;0.90;;;8.20;99.90;;;;;;5047465;28;20072;-48
2023/04/11 05:50:40;;;;;;;4.35;0.60;;;8.30;99.90;;;;;;5038760;28;20521;-41
2023/04/11 05:53:06;;;;;;;8.43;1.40;;;8.20;99.90;;;;;;5050436;28;20140;-41
2023/04/11 05:55:32;;;;;;;3.30;0.90;;;8.30;99.90;;;;;;5061763;28;20127;-42
2023/04/11 05:57:57;;;;;;;6.03;0.60;;;8.20;99.90;;;;;;5058912;28;20074;-41
2023/04/11 06:00:24;;;;;;;7.13;0.70;;;8.20;99.90;;;;;;5056363;28;20052;-42
2023/04/11 06:02:51;;;;;;;3.28;0.50;;;8.30;99.90;;;;;;5059608;28;20140;-42
2023/04/11 06:05:17;;;;;;;4.22;0.60;;;8.30;99.90;;;;;;5060799;28;20071;-43
2023/04/11 06:07:44;;;;;;;2.90;0.73;;;8.30;99.90;;;;;;5058617;28;20056;-41
2023/04/11 06:10:10;;;;;;;4.45;0.52;;;8.30;99.90;;;;;;5056879;28;20057;-40
2023/04/11 06:12:35;;;;;;;6.03;0.68;;;8.30;99.90;;;;;;5060350;28;20468;-40
2023/04/11 06:15:01;;;;;;;4.78;1.02;;;8.30;99.90;;;;;;5060218;28;20049;-38
2023/04/11 06:17:27;;;;;;;4.65;0.70;;;8.30;99.90;;;;;;5055088;28;20098;-38
2023/04/11 06:19:53;;;;;;;4.15;0.60;;;8.30;99.90;;;;;;5051222;28;20084;-38
2023/04/11 06:22:18;;;;;;;4.70;0.65;;;8.40;99.90;;;;;;5058975;28;20057;-38
2023/04/11 06:24:44;;;;;;;4.28;0.68;;;8.40;99.90;;;;;;5065538;28;20485;-39
2023/04/11 06:27:10;;;;;;;6.25;0.90;;;8.40;99.90;;;;;;5061188;28;20040;-37
2023/04/11 06:29:36;;;;;;;7.05;0.60;;;8.40;99.90;;;;;;5056713;28;20679;-37
2023/04/11 06:32:02;;;;;;;6.30;1.17;;;8.40;99.90;;;;;;5062585;28;20307;-37
2023/04/11 06:34:28;;;;;;;6.20;0.85;;;8.40;99.90;;;;;;5049517;28;20457;-37
2023/04/11 06:36:53;;;;;;;4.53;0.70;;;8.40;99.90;;;;;;5038395;28;20052;-41
2023/04/11 06:39:19;;;;;;;10.80;1.15;;;8.40;99.90;;;;;;5057726;28;20186;-39
2023/04/11 06:41:46;;;;;;;6.38;0.90;;;8.40;99.90;;;;;;5053709;28;20620;-37
2023/04/11 06:44:13;;;;;;;11.20;1.30;;;8.40;99.90;;;;;;5039279;28;20456;-38
2023/04/11 06:46:38;;;;;;;7.88;0.65;;;8.40;99.90;;;;;;5059621;28;20473;-38
2023/04/11 06:49:07;;;;;;;8.00;1.08;;;8.40;99.90;;;;;;5059049;28;20080;-38
2023/04/11 06:51:33;;;;;;;2.97;0.77;;;8.50;99.90;;;;;;5054353;28;20555;-38
2023/04/11 06:53:59;;;;;;;7.28;0.70;;;8.50;99.90;;;;;;5055752;28;20498;-38
2023/04/11 06:56:25;;;;;;;6.10;0.50;;;8.50;99.90;;;;;;5061471;28;20140;-37
2023/04/11 06:58:50;;;;;;;6.93;0.95;;;8.50;99.90;;;;;;5063875;28;20036;-37
2023/04/11 07:01:19;;;;;;;6.20;0.60;;;8.50;99.90;;;;;;5057789;28;20048;-38
2023/04/11 07:03:48;;;;;;;9.65;0.85;;;8.60;99.90;;;;;;5060624;28;20553;-38
2023/04/11 07:06:14;;;;;;;17.70;1.35;;;8.60;99.90;;;;;;5060894;28;20045;-40
2023/04/11 07:08:40;;;;;;;5.53;0.60;;;8.60;99.90;;;;;;5052674;28;20051;-38
2023/04/11 07:11:06;;;;;;;4.13;0.50;;;8.60;99.90;;;;;;5051478;28;20043;-38
2023/04/11 07:13:32;;;;;;;6.13;0.52;;;8.70;99.90;;;;;;5051079;28;20493;-39
2023/04/11 07:15:58;;;;;;;3.45;0.60;;;8.60;99.90;;;;;;5054363;28;20047;-38
2023/04/11 07:18:24;;;;;;;5.57;0.80;;;8.70;99.90;;;;;;5051009;28;20049;-38
2023/04/11 07:20:51;;;;;;;5.03;0.60;;;8.70;99.90;;;;;;5059095;28;20094;-38
2023/04/11 07:23:17;;;;;;;5.43;0.55;;;8.70;99.90;;;;;;5057498;28;20047;-38
2023/04/11 07:25:43;;;;;;;4.53;0.50;;;8.80;99.90;;;;;;5055677;28;20052;-38
2023/04/11 07:28:10;;;;;;;5.38;0.95;;;8.80;99.90;;;;;;5059505;28;20556;-37
2023/04/11 07:30:36;;;;;;;3.72;0.52;;;8.80;99.90;;;;;;5052912;28;24348;-37
2023/04/11 07:33:02;;;;;;;13.88;1.35;;;8.80;99.90;;;;;;5059023;28;20253;-38
2023/04/11 07:35:29;;;;;;;2.28;0.50;;;8.90;99.90;;;;;;5057989;28;20186;-38
2023/04/11 07:37:56;;;;;;;3.53;0.60;;;8.80;99.90;;;;;;5063641;28;20482;-38
2023/04/11 07:40:22;;;;;;;3.45;0.63;;;8.90;99.90;;;;;;5063206;28;20588;-37
2023/04/11 07:42:47;;;;;;;7.82;1.13;;;8.90;99.90;;;;;;5063388;28;20151;-39
2023/04/11 07:45:13;;;;;;;5.60;0.93;;;9.00;99.90;;;;;;5066897;28;20540;-38
2023/04/11 07:47:39;;;;;;;8.95;1.15;;;9.00;99.90;;;;;;5058510;28;20057;-38
2023/04/11 07:50:06;;;;;;;6.90;0.73;;;9.10;99.90;;;;;;5055775;28;20056;-38
2023/04/11 07:52:31;;;;;;;6.72;1.15;;;9.10;99.90;;;;;;5061880;28;20259;-37
2023/04/11 07:54:57;;;;;;;6.50;0.60;;;9.20;99.90;;;;;;5054699;28;20040;-38
2023/04/11 07:57:23;;;;;;;4.10;0.45;;;9.30;99.90;;;;;;5051771;28;20095;-38
2023/04/11 07:59:48;;;;;;;5.05;1.00;;;9.30;99.90;;;;;;5058386;28;20113;-38
2023/04/11 08:02:17;;;;;;;6.97;0.60;;;9.30;99.90;;;;;;5053324;28;20387;-38
2023/04/11 08:04:44;;;;;;;7.70;0.80;;;9.40;99.90;;;;;;5066436;28;20045;-38
2023/04/11 08:07:10;;;;;;;8.32;0.95;;;9.50;99.90;;;;;;5064087;28;20056;-39
2023/04/11 08:09:36;;;;;;;6.72;1.00;;;9.60;99.90;;;;;;5057479;28;20075;-39
2023/04/11 08:12:02;;;;;;;2.30;1.27;;;9.60;99.90;;;;;;5064847;28;20091;-39
2023/04/11 08:14:27;;;;;;;2.40;0.60;;;9.60;99.90;;;;;;5061782;28;20056;-38
2023/04/11 08:16:53;;;;;;;4.32;0.68;;;9.60;99.90;;;;;;5061616;28;20053;-38
2023/04/11 08:19:20;;;;;;;5.97;0.88;;;9.50;99.90;;;;;;5066862;28;20067;-38
2023/04/11 08:21:45;;;;;;;5.22;0.98;;;9.50;99.90;;;;;;5060859;28;20995;-39
2023/04/11 08:24:11;;;;;;;3.83;0.70;;;9.60;99.90;;;;;;5063588;28;20078;-39
2023/04/11 08:26:37;;;;;;;4.60;0.68;;;9.80;99.90;;;;;;5062751;28;20075;-38
2023/04/11 08:29:02;;;;;;;6.25;0.60;;;9.90;99.90;;;;;;5071029;28;20048;-39
2023/04/11 08:31:28;;;;;;;1.85;0.43;;;9.80;99.90;;;;;;5061981;28;20483;-37
2023/04/11 08:33:54;;;;;;;4.55;0.68;;;9.70;99.90;;;;;;5065483;28;20057;-38
2023/04/11 08:36:20;;;;;;;6.85;0.85;;;9.50;99.90;;;;;;5064479;28;20430;-37
2023/04/11 08:38:46;;;;;;;3.33;0.55;;;9.50;99.90;;;;;;5064653;28;20055;-38
2023/04/11 08:41:13;;;;;;;3.30;0.55;;;9.40;99.90;;;;;;5064972;28;20063;-38
2023/04/11 08:43:39;;;;;;;6.72;0.70;;;9.40;99.90;;;;;;5047014;28;20787;-38
2023/04/11 08:46:10;;;;;;;2.53;0.60;;;9.30;99.90;;;;;;5064706;28;20068;-38
2023/04/11 08:48:37;;;;;;;6.47;0.52;;;9.30;99.90;;;;;;5061873;28;20128;-37
2023/04/11 08:51:02;;;;;;;6.45;0.70;;;9.50;99.90;;;;;;5035003;28;20052;-37
2023/04/11 08:53:29;;;;;;;7.85;0.90;;;9.50;99.90;;;;;;5041182;28;20047;-39
2023/04/11 08:55:55;;;;;;;3.47;0.90;;;9.40;99.90;;;;;;5058249;28;20045;-38
2023/04/11 08:58:21;;;;;;;5.82;0.50;;;9.30;99.90;;;;;;5061329;28;20067;-37
2023/04/11 09:00:47;;;;;;;4.72;0.70;;;9.20;99.90;;;;;;5063194;28;20283;-37
2023/04/11 09:03:15;;;;;;;4.68;0.70;;;9.40;99.90;;;;;;5061389;28;20049;-38
2023/04/11 09:05:43;;;;;;;4.35;0.60;;;9.60;99.90;;;;;;5052795;28;20072;-38
2023/04/11 09:08:13;;;;;;;6.00;0.60;;;9.70;99.90;;;;;;5060414;28;20075;-38
2023/04/11 09:10:44;;;;;;;5.45;1.13;;;9.90;99.90;;;;;;5060074;28;20055;-38
2023/04/11 09:13:27;;;;;;;7.15;1.23;;;10.20;99.90;;;;;;5061608;28;20551;-39
2023/04/11 09:16:13;;;;;;;6.90;0.90;;;10.20;99.90;;;;;;5061206;28;21010;-38
2023/04/11 09:18:41;;;;;;;5.82;0.43;;;9.90;99.90;;;;;;5058221;28;20151;-38
2023/04/11 09:21:11;;;;;;;3.25;0.38;;;9.80;99.90;;;;;;5058198;28;20052;-38
2023/04/11 09:23:37;;;;;;;5.18;0.70;;;10.00;99.90;;;;;;5062423;28;20071;-38
2023/04/11 09:26:08;;;;;;;5.15;0.60;;;10.10;99.90;;;;;;5063189;28;20041;-38
2023/04/11 09:28:53;;;;;;;6.50;0.82;;;10.00;99.90;;;;;;5063594;28;20047;-38
2023/04/11 09:31:37;;;;;;;6.93;0.80;;;9.90;99.90;;;;;;5064977;28;20057;-38
2023/04/11 09:34:03;;;;;;;7.28;0.90;;;9.80;99.90;;;;;;5065193;28;20051;-38
2023/04/11 09:36:29;;;;;;;2.92;0.70;;;9.70;99.90;;;;;;5063271;28;20255;-38
2023/04/11 09:38:56;;;;;;;7.65;1.10;;;9.80;99.90;;;;;;5063521;28;20456;-38
2023/04/11 09:41:30;;;;;;;3.92;0.75;;;9.80;99.90;;;;;;5063875;28;20052;-38
2023/04/11 09:43:55;;;;;;;3.30;0.80;;;9.80;99.90;;;;;;5063505;28;20044;-38
2023/04/11 09:46:21;;;;;;;4.38;0.95;;;9.80;99.90;;;;;;5063683;28;20532;-38
2023/04/11 09:48:48;;;;;;;4.88;0.98;;;9.90;99.90;;;;;;5065521;28;20045;-38
2023/04/11 09:51:15;;;;;;;9.45;1.05;;;10.20;99.90;;;;;;5065204;28;20165;-38
2023/04/11 09:53:41;;;;;;;7.45;1.00;;;10.60;99.90;;;;;;5061712;28;20215;-38
2023/04/11 09:56:08;;;;;;;7.63;0.77;;;10.60;99.90;;;;;;5055318;28;20114;-38
2023/04/11 09:58:36;;;;;;;8.10;1.30;;;10.40;99.90;;;;;;5058730;28;20090;-38
2023/04/11 10:01:03;;;;;;;10.25;0.93;;;10.20;99.90;;;;;;5063247;28;20070;-38
2023/04/11 10:03:33;;;;;;;8.95;0.70;;;10.30;99.90;;;;;;5060627;28;20048;-38
2023/04/11 10:06:01;;;;;;;3.63;0.60;;;10.60;99.90;;;;;;5061016;28;20372;-38
2023/04/11 10:08:32;;;;;;;4.43;0.70;;;10.70;99.90;;;;;;5064414;28;20079;-39
2023/04/11 10:11:02;;;;;;;6.97;1.30;;;10.60;99.90;;;;;;5060828;28;20049;-39
2023/04/11 10:13:33;;;;;;;6.70;1.50;;;10.60;99.90;;;;;;5056992;28;20170;-44
2023/04/11 10:16:14;;;;;;;3.95;2.05;;;10.60;99.90;;;;;;5060759;28;20083;-38
2023/04/11 10:18:54;;;;;;;5.50;1.38;;;10.50;99.90;;;;;;5055175;28;20127;-38
2023/04/11 10:21:29;;;;;;;6.03;0.82;;;10.70;99.90;;;;;;5056747;28;20057;-38
2023/04/11 10:24:11;;;;;;;3.63;0.90;;;10.70;99.90;;;;;;5059919;28;20512;-38
2023/04/11 10:26:56;;;;;;;3.55;0.60;;;10.70;99.90;;;;;;5057764;28;20053;-38
2023/04/11 10:29:39;;;;;;;5.40;0.70;;;10.80;99.90;;;;;;5062138;28;20106;-39
2023/04/11 10:32:15;;;;;;;5.28;0.70;;;11.00;99.90;;;;;;5063167;28;20056;-38
2023/04/11 10:35:01;;;;;;;4.07;0.80;;;10.90;99.90;;;;;;5055434;28;20087;-38
2023/04/11 10:37:29;;;;;;;5.75;0.98;;;10.70;99.90;;;;;;5042342;28;20555;-38
2023/04/11 10:40:00;;;;;;;7.82;0.80;;;10.70;99.90;;;;;;5060162;28;20406;-38
2023/04/11 10:42:41;;;;;;;4.55;0.70;;;10.80;99.90;;;;;;5063609;28;20522;-38
2023/04/11 10:45:16;;;;;;;5.72;0.60;;;10.90;99.90;;;;;;5060188;28;20534;-38
2023/04/11 10:47:42;;;;;;;5.28;0.82;;;10.90;99.90;;;;;;5062284;28;20218;-38
2023/04/11 10:50:26;;;;;;;7.28;0.90;;;11.20;99.90;;;;;;5055181;28;20182;-38
2023/04/11 10:52:53;;;;;;;6.78;0.70;;;11.30;99.90;;;;;;5057255;28;20052;-37
2023/04/11 10:55:19;;;;;;;5.28;0.70;;;11.20;99.90;;;;;;5056861;28;20080;-37
2023/04/11 10:58:20;;;;;;;6.78;0.57;;;11.10;99.90;;;;;;5060322;28;20105;-38
2023/04/11 11:00:49;;;;;;;3.83;0.75;;;11.10;99.90;;;;;;5054511;28;20413;-38
2023/04/11 11:03:17;;;;;;;5.63;0.93;;;11.00;99.90;;;;;;5063663;28;20517;-38
2023/04/11 11:05:43;;;;;;;3.90;0.70;;;10.90;99.90;;;;;;5063113;28;20114;-39
2023/04/11 11:08:09;;;;;;;5.90;0.60;;;11.10;99.90;;;;;;5048925;28;20076;-37
2023/04/11 11:10:52;;;;;;;3.65;1.00;;;11.30;99.90;;;;;;5044462;28;20079;-38
2023/04/11 11:13:18;;;;;;;5.65;1.23;;;11.10;99.90;;;;;;5060551;28;20149;-38
2023/04/11 11:15:48;;;;;;;6.68;1.10;;;11.10;99.90;;;;;;5061410;28;20521;-38
2023/04/11 11:18:14;;;;;;;5.20;1.40;;;11.30;99.90;;;;;;5065978;28;20518;-38
2023/04/11 11:20:41;;;;;;;7.63;0.70;;;11.50;99.90;;;;;;5061613;28;20074;-37
2023/04/11 11:23:09;;;;;;;2.55;0.40;;;11.60;99.90;;;;;;5060310;28;20129;-38
2023/04/11 11:25:35;;;;;;;7.82;0.82;;;11.70;99.90;;;;;;5062264;28;20143;-38
2023/04/11 11:28:08;;;;;;;3.60;0.40;;;11.70;99.90;;;;;;5068833;28;20132;-37
2023/04/11 11:30:36;;;;;;;5.82;0.70;;;11.80;99.90;;;;;;5062738;28;20052;-38
2023/04/11 11:33:18;;;;;;;4.93;0.60;;;11.80;99.90;;;;;;5062081;28;20068;-38
2023/04/11 11:35:54;;;;;;;3.75;0.50;;;11.80;99.90;;;;;;5068298;28;20098;-38
2023/04/11 11:38:23;;;;;;;7.05;0.88;;;11.90;99.90;;;;;;5064290;28;20510;-39
2023/04/11 11:40:49;;;;;;;5.57;0.65;;;12.10;99.90;;;;;;5065969;28;20470;-38
2023/04/11 11:43:15;;;;;;;4.35;0.98;;;12.10;99.90;;;;;;5068560;28;20056;-39
2023/04/11 11:45:42;;;;;;;5.25;0.93;;;12.10;99.90;;;;;;5066318;28;20391;-38
2023/04/11 11:48:17;;;;;;;5.30;0.70;;;12.00;99.90;;;;;;5069068;28;20087;-38
2023/04/11 11:50:43;;;;;;;3.92;0.50;;;12.00;99.90;;;;;;5062872;28;20125;-39
2023/04/11 11:53:15;;;;;;;3.88;0.68;;;11.70;99.90;;;;;;5073871;28;20573;-39
2023/04/11 11:55:42;;;;;;;4.47;0.60;;;11.60;99.90;;;;;;5064472;28;20048;-39
2023/04/11 11:58:08;;;;;;;8.70;1.45;;;11.80;99.90;;;;;;5062258;28;20068;-42
2023/04/11 12:00:39;;;;;;;4.03;0.77;;;11.80;99.90;;;;;;5063092;28;20049;-42
2023/04/11 12:03:11;;;;;;;5.32;0.63;;;11.60;99.90;;;;;;5066188;28;20125;-46
2023/04/11 12:05:37;;;;;;;4.57;0.45;;;11.70;99.90;;;;;;5065853;28;20045;-41
2023/04/11 12:08:06;;;;;;;1.73;0.38;;;11.60;99.90;;;;;;5056240;28;20059;-40
2023/04/11 12:10:39;;;;;;;2.83;0.40;;;11.60;99.90;;;;;;5057778;28;20048;-41
2023/04/11 12:13:17;;;;;;;5.57;0.60;;;11.80;99.90;;;;;;5067826;28;20516;-43
2023/04/11 12:15:48;;;;;;;6.97;0.40;;;12.00;99.90;;;;;;5067626;28;20055;-42
2023/04/11 12:18:13;;;;;;;3.63;0.50;;;12.10;99.90;;;;;;5063211;28;20539;-43
2023/04/11 12:20:39;;;;;;;3.17;0.50;;;12.30;99.90;;;;;;5064894;28;20135;-41
2023/04/11 12:23:05;;;;;;;4.97;0.70;;;12.40;99.90;;;;;;5066570;28;20080;-41
2023/04/11 12:25:31;;;;;;;3.42;0.63;;;12.70;99.90;;;;;;5060395;28;20055;-41
2023/04/11 12:27:57;;;;;;;3.80;0.40;;;12.70;99.90;;;;;;5063657;28;20055;-46
2023/04/11 12:30:23;;;;;;;4.82;0.80;;;12.60;99.90;;;;;;5063096;28;20381;-42
2023/04/11 12:32:48;;;;;;;5.50;0.57;;;12.70;99.90;;;;;;5058128;28;20048;-44
2023/04/11 12:35:14;;;;;;;5.68;0.88;;;12.70;99.90;;;;;;5057213;28;20083;-43
2023/04/11 12:37:40;;;;;;;4.53;0.70;;;12.30;99.90;;;;;;5063562;28;20056;-41
2023/04/11 12:40:14;;;;;;;4.72;0.80;;;12.00;99.90;;;;;;5063368;28;20048;-43
2023/04/11 12:42:41;;;;;;;6.88;1.00;;;11.70;99.90;;;;;;5062029;28;20095;-42
2023/04/11 12:45:07;;;;;;;2.83;0.50;;;11.90;99.90;;;;;;5065503;28;20045;-41
2023/04/11 12:47:34;;;;;;;6.50;0.80;;;12.20;99.90;;;;;;5067069;28;20053;-43
2023/04/11 12:50:00;;;;;;;6.40;0.68;;;12.30;99.90;;;;;;5060021;28;20312;-43
2023/04/11 12:52:26;;;;;;;6.38;0.80;;;12.30;99.90;;;;;;5058067;28;20650;-41
2023/04/11 12:54:51;;;;;;;6.28;0.70;;;12.20;99.90;;;;;;5053053;28;20056;-41